createdAt,value
2018-12-31T00:00:08.753Z,17.13
2018-12-31T00:02:37.896Z,16.20
2018-12-31T00:05:06.350Z,17.90
2018-12-31T00:07:54.118Z,15.73
2018-12-31T00:10:22.577Z,15.33
2018-12-31T00:12:51.020Z,14.33
2018-12-31T00:15:19.472Z,16.10
2018-12-31T00:17:47.911Z,14.87
2018-12-31T00:20:16.375Z,14.13
2018-12-31T00:22:44.821Z,15.90
2018-12-31T00:25:13.271Z,14.20
2018-12-31T00:27:41.703Z,14.80
2018-12-31T00:30:10.169Z,14.07
2018-12-31T00:32:38.605Z,14.33
2018-12-31T00:35:07.191Z,13.17
2018-12-31T00:37:35.737Z,13.73
2018-12-31T00:40:04.982Z,13.33
2018-12-31T00:42:33.428Z,12.17
2018-12-31T00:45:01.872Z,14.60
2018-12-31T00:47:30.333Z,16.03
2018-12-31T00:49:58.795Z,14.10
2018-12-31T00:52:27.255Z,13.60
2018-12-31T00:54:55.699Z,13.90
2018-12-31T00:57:24.152Z,14.00
2018-12-31T00:59:52.587Z,13.80
2018-12-31T01:02:21.042Z,13.57
2018-12-31T01:04:49.475Z,14.30
2018-12-31T01:07:18.024Z,13.40
2018-12-31T01:09:46.461Z,12.90
2018-12-31T01:12:14.926Z,12.77
2018-12-31T01:14:43.379Z,12.90
2018-12-31T01:17:11.832Z,12.80
2018-12-31T01:19:40.271Z,12.20
2018-12-31T01:22:08.732Z,12.10
2018-12-31T01:24:38.035Z,11.60
2018-12-31T01:27:06.471Z,12.23
2018-12-31T01:29:34.919Z,12.40
2018-12-31T01:32:03.362Z,11.87
2018-12-31T01:34:51.148Z,12.07
2018-12-31T01:37:19.609Z,11.90
2018-12-31T01:39:48.081Z,11.83
2018-12-31T01:42:16.519Z,11.67
2018-12-31T01:44:45.957Z,11.97
2018-12-31T01:47:14.388Z,13.90
2018-12-31T01:49:42.851Z,12.27
2018-12-31T01:52:11.284Z,12.83
2018-12-31T01:54:39.735Z,12.80
2018-12-31T01:57:08.172Z,12.70
2018-12-31T01:59:42.779Z,13.90
2018-12-31T02:02:11.220Z,13.73
2018-12-31T02:04:39.752Z,13.20
2018-12-31T02:07:08.188Z,13.77
2018-12-31T02:09:36.656Z,13.80
2018-12-31T02:12:07.119Z,13.20
2018-12-31T02:14:54.921Z,12.27
2018-12-31T02:17:23.355Z,12.53
2018-12-31T02:19:51.817Z,11.00
2018-12-31T02:22:20.275Z,13.30
2018-12-31T02:24:48.730Z,11.60
2018-12-31T02:27:17.179Z,10.80
2018-12-31T02:29:45.622Z,10.10
2018-12-31T02:32:14.537Z,10.40
2018-12-31T02:34:43.133Z,10.07
2018-12-31T02:37:12.651Z,9.33
2018-12-31T02:39:41.087Z,9.50
2018-12-31T02:42:09.543Z,9.40
2018-12-31T02:44:37.972Z,8.43
2018-12-31T02:47:06.414Z,8.40
2018-12-31T02:49:34.857Z,8.70
2018-12-31T02:52:03.367Z,9.47
2018-12-31T02:54:51.183Z,7.87
2018-12-31T02:57:19.632Z,8.20
2018-12-31T02:59:48.055Z,8.47
2018-12-31T03:02:16.502Z,8.20
2018-12-31T03:04:44.935Z,7.83
2018-12-31T03:07:13.368Z,8.30
2018-12-31T03:09:41.817Z,7.90
2018-12-31T03:12:10.250Z,8.30
2018-12-31T03:14:38.699Z,7.37
2018-12-31T03:17:07.135Z,8.60
2018-12-31T03:19:35.594Z,6.90
2018-12-31T03:22:04.032Z,6.80
2018-12-31T03:24:32.475Z,6.60
2018-12-31T03:27:00.898Z,7.20
2018-12-31T03:29:29.350Z,6.37
2018-12-31T03:31:57.787Z,5.67
2018-12-31T03:34:26.233Z,5.70
2018-12-31T03:36:54.672Z,6.07
2018-12-31T03:39:23.140Z,6.10
2018-12-31T03:41:51.577Z,6.87
2018-12-31T03:44:20.016Z,6.43
2018-12-31T03:46:48.458Z,6.50
2018-12-31T03:49:16.883Z,5.97
2018-12-31T03:51:45.347Z,6.10
2018-12-31T03:54:13.768Z,6.40
2018-12-31T03:56:42.289Z,6.70
2018-12-31T03:59:10.795Z,6.60
2018-12-31T04:01:39.243Z,6.30
2018-12-31T04:04:07.735Z,7.80
2018-12-31T04:06:36.176Z,7.93
2018-12-31T04:09:06.158Z,9.00
2018-12-31T04:11:34.689Z,9.57
2018-12-31T04:14:03.138Z,10.37
2018-12-31T04:16:31.563Z,9.37
2018-12-31T04:19:00.034Z,10.50
2018-12-31T04:21:28.468Z,9.93
2018-12-31T04:23:56.916Z,11.23
2018-12-31T04:26:25.351Z,12.23
2018-12-31T04:28:53.870Z,13.17
2018-12-31T04:31:41.648Z,12.70
2018-12-31T04:34:10.099Z,12.67
2018-12-31T04:36:38.540Z,13.60
2018-12-31T04:39:07.648Z,13.17
2018-12-31T04:41:55.490Z,13.70
2018-12-31T04:44:23.934Z,13.93
2018-12-31T04:46:52.380Z,13.67
2018-12-31T04:49:20.841Z,14.30
2018-12-31T04:51:49.284Z,14.93
2018-12-31T04:54:17.724Z,16.20
2018-12-31T04:56:46.177Z,16.40
2018-12-31T04:59:14.621Z,16.70
2018-12-31T05:01:43.077Z,16.47
2018-12-31T05:04:11.523Z,16.90
2018-12-31T05:06:39.968Z,17.23
2018-12-31T05:09:08.479Z,17.20
2018-12-31T05:11:36.945Z,17.47
2018-12-31T05:14:05.378Z,16.50
2018-12-31T05:16:33.968Z,17.30
2018-12-31T05:19:02.522Z,17.40
2018-12-31T05:21:31.142Z,17.10
2018-12-31T05:23:59.696Z,18.10
2018-12-31T05:26:28.149Z,16.80
2018-12-31T05:28:56.679Z,17.60
2018-12-31T05:31:25.132Z,17.40
2018-12-31T05:33:53.593Z,17.83
2018-12-31T05:36:22.035Z,18.07
2018-12-31T05:39:09.828Z,17.60
2018-12-31T05:41:38.262Z,18.53
2018-12-31T05:44:06.753Z,18.97
2018-12-31T05:46:35.194Z,18.23
2018-12-31T05:49:03.653Z,18.37
2018-12-31T05:51:32.100Z,18.17
2018-12-31T05:54:00.542Z,18.83
2018-12-31T05:56:28.999Z,18.10
2018-12-31T05:58:57.440Z,16.90
2018-12-31T06:01:25.906Z,20.43
2018-12-31T06:03:54.343Z,18.53
2018-12-31T06:06:22.798Z,17.20
2018-12-31T06:08:51.231Z,18.77
2018-12-31T06:11:19.688Z,17.33
2018-12-31T06:13:48.126Z,18.17
2018-12-31T06:16:16.635Z,18.20
2018-12-31T06:18:45.104Z,17.73
2018-12-31T06:21:13.560Z,18.90
2018-12-31T06:23:41.999Z,17.30
2018-12-31T06:26:29.796Z,17.17
2018-12-31T06:28:58.235Z,17.90
2018-12-31T06:31:26.688Z,19.43
2018-12-31T06:33:55.124Z,18.37
2018-12-31T06:36:23.653Z,17.10
2018-12-31T06:38:52.179Z,17.90
2018-12-31T06:41:20.608Z,18.57
2018-12-31T06:43:49.064Z,17.70
2018-12-31T06:46:17.501Z,16.40
2018-12-31T06:48:45.963Z,17.90
2018-12-31T06:51:14.404Z,17.30
2018-12-31T06:53:42.857Z,17.60
2018-12-31T06:56:11.296Z,18.20
2018-12-31T06:58:39.761Z,20.10
2018-12-31T07:01:08.200Z,19.47
2018-12-31T07:03:36.652Z,19.57
2018-12-31T07:06:05.139Z,20.90
2018-12-31T07:08:33.670Z,19.83
2018-12-31T07:11:02.113Z,24.63
2018-12-31T07:13:30.569Z,23.80
2018-12-31T07:15:59.097Z,22.83
2018-12-31T07:18:27.600Z,25.60
2018-12-31T07:20:56.056Z,24.50
2018-12-31T07:23:43.836Z,25.50
2018-12-31T07:26:12.289Z,23.50
2018-12-31T07:28:40.719Z,23.77
2018-12-31T07:31:10.219Z,22.90
2018-12-31T07:33:38.655Z,23.90
2018-12-31T07:36:07.184Z,23.60
2018-12-31T07:38:35.619Z,24.53
2018-12-31T07:41:04.066Z,24.33
2018-12-31T07:43:32.511Z,23.70
2018-12-31T07:46:00.965Z,24.20
2018-12-31T07:48:29.410Z,25.37
2018-12-31T07:50:57.868Z,27.40
2018-12-31T07:53:26.324Z,26.60
2018-12-31T07:56:00.567Z,27.37
2018-12-31T07:58:48.336Z,27.57
2018-12-31T08:01:16.793Z,26.97
2018-12-31T08:03:45.227Z,27.13
2018-12-31T08:06:13.684Z,27.93
2018-12-31T08:08:42.115Z,29.53
2018-12-31T08:11:10.553Z,30.27
2018-12-31T08:13:39.012Z,30.20
2018-12-31T08:16:07.448Z,29.30
2018-12-31T08:18:35.914Z,30.47
2018-12-31T08:21:04.356Z,29.30
2018-12-31T08:23:32.819Z,29.57
2018-12-31T08:26:01.287Z,31.80
2018-12-31T08:28:29.747Z,31.63
2018-12-31T08:30:58.191Z,31.93
2018-12-31T08:33:26.650Z,32.30
2018-12-31T08:35:55.108Z,33.70
2018-12-31T08:38:23.569Z,31.23
2018-12-31T08:40:52.015Z,33.40
2018-12-31T08:43:20.544Z,33.53
2018-12-31T08:45:49.012Z,31.80
2018-12-31T08:48:17.527Z,31.23
2018-12-31T08:50:45.973Z,33.03
2018-12-31T08:53:14.471Z,35.07
2018-12-31T08:55:42.926Z,32.23
2018-12-31T08:58:11.361Z,32.67
2018-12-31T09:00:39.852Z,31.77
2018-12-31T09:03:27.638Z,32.20
2018-12-31T09:05:56.106Z,30.00
2018-12-31T09:08:24.549Z,31.60
2018-12-31T09:10:53.041Z,32.73
2018-12-31T09:13:21.531Z,32.60
2018-12-31T09:15:49.994Z,32.07
2018-12-31T09:18:18.450Z,29.30
2018-12-31T09:20:46.907Z,30.60
2018-12-31T09:23:15.356Z,30.33
2018-12-31T09:25:43.813Z,30.13
2018-12-31T09:28:12.274Z,30.43
2018-12-31T09:30:46.500Z,33.40
2018-12-31T09:33:34.291Z,29.10
2018-12-31T09:36:02.739Z,30.87
2018-12-31T09:38:31.175Z,31.97
2018-12-31T09:40:59.632Z,30.30
2018-12-31T09:43:28.082Z,29.30
2018-12-31T09:45:56.550Z,30.23
2018-12-31T09:48:25.007Z,28.60
2018-12-31T09:50:53.500Z,30.30
2018-12-31T09:53:21.947Z,32.13
2018-12-31T09:56:09.740Z,31.13
2018-12-31T09:58:38.191Z,32.20
2018-12-31T10:01:08.745Z,32.30
2018-12-31T10:03:37.197Z,33.77
2018-12-31T10:06:05.660Z,29.77
2018-12-31T10:08:34.183Z,33.60
2018-12-31T10:11:02.723Z,32.00
2018-12-31T10:13:31.171Z,31.60
2018-12-31T10:15:59.616Z,35.30
2018-12-31T10:18:28.081Z,31.87
2018-12-31T10:20:56.607Z,35.20
2018-12-31T10:23:25.069Z,33.23
2018-12-31T10:25:53.507Z,32.70
2018-12-31T10:28:21.968Z,31.47
2018-12-31T10:30:50.412Z,32.40
2018-12-31T10:33:19.274Z,32.37
2018-12-31T10:35:47.784Z,31.80
2018-12-31T10:38:17.283Z,31.57
2018-12-31T10:40:45.729Z,31.30
2018-12-31T10:43:14.203Z,30.00
2018-12-31T10:45:42.718Z,30.93
2018-12-31T10:48:11.247Z,30.90
2018-12-31T10:50:39.787Z,32.00
2018-12-31T10:53:08.244Z,32.50
2018-12-31T10:55:36.692Z,29.80
2018-12-31T10:58:05.233Z,28.83
2018-12-31T11:00:33.819Z,29.87
2018-12-31T11:03:02.287Z,27.60
2018-12-31T11:05:50.090Z,28.70
2018-12-31T11:08:18.540Z,29.87
2018-12-31T11:10:47.012Z,29.00
2018-12-31T11:13:15.519Z,29.50
2018-12-31T11:15:43.987Z,30.23
2018-12-31T11:18:12.502Z,28.93
2018-12-31T11:20:40.954Z,30.53
2018-12-31T11:23:09.404Z,26.30
2018-12-31T11:25:37.913Z,30.27
2018-12-31T11:28:06.387Z,29.80
2018-12-31T11:30:34.858Z,30.03
2018-12-31T11:33:03.307Z,29.43
2018-12-31T11:35:31.744Z,28.90
2018-12-31T11:38:00.204Z,28.33
2018-12-31T11:40:47.988Z,28.83
2018-12-31T11:43:16.523Z,27.40
2018-12-31T11:45:45.037Z,28.67
2018-12-31T11:48:13.504Z,26.80
2018-12-31T11:50:41.959Z,28.43
2018-12-31T11:53:10.496Z,29.30
2018-12-31T11:55:38.961Z,28.57
2018-12-31T11:58:07.413Z,30.00
2018-12-31T12:00:35.884Z,29.40
2018-12-31T12:03:04.349Z,29.30
2018-12-31T12:05:32.786Z,28.73
2018-12-31T12:08:01.260Z,31.40
2018-12-31T12:10:29.764Z,31.43
2018-12-31T12:12:58.227Z,29.23
2018-12-31T12:15:26.670Z,28.93
2018-12-31T12:17:55.183Z,27.80
2018-12-31T12:20:23.651Z,27.73
2018-12-31T12:22:52.106Z,26.87
2018-12-31T12:25:20.635Z,28.37
2018-12-31T12:27:49.079Z,28.40
2018-12-31T12:30:17.546Z,26.97
2018-12-31T12:32:46.067Z,26.87
2018-12-31T12:35:33.870Z,27.50
2018-12-31T12:38:02.320Z,26.70
2018-12-31T12:40:30.860Z,27.37
2018-12-31T12:42:59.319Z,27.43
2018-12-31T12:45:47.120Z,27.00
2018-12-31T12:48:15.563Z,28.37
2018-12-31T12:50:44.423Z,28.60
2018-12-31T12:53:32.204Z,25.63
2018-12-31T12:56:00.688Z,27.77
2018-12-31T12:58:29.124Z,29.20
2018-12-31T13:00:57.583Z,26.80
2018-12-31T13:03:26.026Z,29.97
2018-12-31T13:06:00.339Z,27.57
2018-12-31T13:08:28.840Z,26.90
2018-12-31T13:10:57.317Z,31.37
2018-12-31T13:13:25.759Z,27.50
2018-12-31T13:15:54.199Z,30.13
2018-12-31T13:18:42.146Z,28.77
2018-12-31T13:21:10.983Z,29.10
2018-12-31T13:23:39.435Z,31.07
2018-12-31T13:26:27.240Z,30.10
2018-12-31T13:28:55.683Z,30.30
2018-12-31T13:31:24.212Z,29.77
2018-12-31T13:33:52.671Z,29.20
2018-12-31T13:36:21.113Z,27.50
2018-12-31T13:38:49.570Z,29.63
2018-12-31T13:41:18.011Z,27.63
2018-12-31T13:43:46.655Z,30.80
2018-12-31T13:46:15.100Z,28.97
2018-12-31T13:49:02.966Z,27.40
2018-12-31T13:51:31.461Z,26.93
2018-12-31T13:53:59.924Z,26.50
2018-12-31T13:56:28.361Z,27.17
2018-12-31T13:58:56.906Z,26.33
2018-12-31T14:04:13.044Z,28.30
2018-12-31T14:06:41.493Z,26.03
2018-12-31T14:09:10.976Z,26.40
2018-12-31T14:11:44.896Z,25.97
2018-12-31T14:14:14.738Z,26.57
2018-12-31T14:16:43.196Z,27.10
2018-12-31T14:19:11.637Z,27.53
2018-12-31T14:21:41.092Z,25.77
2018-12-31T14:24:09.536Z,26.70
2018-12-31T14:26:37.999Z,24.30
2018-12-31T14:29:06.519Z,25.40
2018-12-31T14:31:36.794Z,24.43
2018-12-31T14:34:05.276Z,29.30
2018-12-31T14:36:53.075Z,27.60
2018-12-31T14:39:21.659Z,25.00
2018-12-31T14:41:50.191Z,24.90
2018-12-31T14:44:18.633Z,25.20
2018-12-31T14:46:47.162Z,24.10
2018-12-31T14:49:15.607Z,24.37
2018-12-31T14:51:44.144Z,24.83
2018-12-31T14:54:12.577Z,23.90
2018-12-31T14:56:41.055Z,23.77
2018-12-31T14:59:09.518Z,23.37
2018-12-31T15:01:40.031Z,23.60
2018-12-31T15:04:08.495Z,24.43
2018-12-31T15:06:37.017Z,24.40
2018-12-31T15:09:06.828Z,23.50
2018-12-31T15:11:35.280Z,22.97
2018-12-31T15:14:05.827Z,24.00
2018-12-31T15:16:34.277Z,24.20
2018-12-31T15:19:02.821Z,22.20
2018-12-31T15:21:31.388Z,23.83
2018-12-31T15:23:59.863Z,23.33
2018-12-31T15:26:28.380Z,22.63
2018-12-31T15:28:56.839Z,24.17
2018-12-31T15:31:25.304Z,25.27
2018-12-31T15:33:53.855Z,24.77
2018-12-31T15:36:22.380Z,24.67
2018-12-31T15:38:51.347Z,24.20
2018-12-31T15:41:19.883Z,25.70
2018-12-31T15:43:48.327Z,25.63
2018-12-31T15:46:20.291Z,25.07
2018-12-31T15:48:46.953Z,27.77
2018-12-31T15:51:15.830Z,25.07
2018-12-31T15:53:44.352Z,25.13
2018-12-31T15:56:12.813Z,25.83
2018-12-31T15:58:41.299Z,26.20
2018-12-31T16:01:09.759Z,26.10
2018-12-31T16:03:38.519Z,27.10
2018-12-31T16:06:07.051Z,28.43
2018-12-31T16:08:35.500Z,28.00
2018-12-31T16:11:03.952Z,29.17
2018-12-31T16:13:38.284Z,27.40
2018-12-31T16:16:07.232Z,26.90
2018-12-31T16:18:35.759Z,27.43
2018-12-31T16:21:10.128Z,26.33
2018-12-31T16:23:38.621Z,26.93
2018-12-31T16:26:07.124Z,29.60
2018-12-31T16:28:35.798Z,27.73
2018-12-31T16:31:04.311Z,27.10
2018-12-31T16:33:32.774Z,30.83
2018-12-31T16:36:01.211Z,29.23
2018-12-31T16:38:29.675Z,28.47
2018-12-31T16:40:58.627Z,29.00
2018-12-31T16:43:27.119Z,28.17
2018-12-31T16:45:55.888Z,28.77
2018-12-31T16:48:24.388Z,28.20
2018-12-31T16:50:53.012Z,29.18
2018-12-31T16:53:41.192Z,36.13
2018-12-31T16:56:09.644Z,28.20
2018-12-31T16:58:38.104Z,29.70
2018-12-31T17:01:06.560Z,29.70
2018-12-31T17:03:35.481Z,29.70
2018-12-31T17:06:04.000Z,30.27
2018-12-31T17:08:32.439Z,30.97
2018-12-31T17:11:00.905Z,30.77
2018-12-31T17:13:31.342Z,31.97
2018-12-31T17:16:06.598Z,30.57
2018-12-31T17:18:35.116Z,30.20
2018-12-31T17:21:22.983Z,34.63
2018-12-31T17:23:51.503Z,32.17
2018-12-31T17:26:19.990Z,31.80
2018-12-31T17:29:07.913Z,32.47
2018-12-31T17:31:36.409Z,32.17
2018-12-31T17:34:05.053Z,30.97
2018-12-31T17:36:33.568Z,30.33
2018-12-31T17:39:02.024Z,32.50
2018-12-31T17:41:30.460Z,31.90
2018-12-31T17:43:58.938Z,31.07
2018-12-31T17:46:27.439Z,42.17
2018-12-31T17:48:55.981Z,41.00
2018-12-31T17:51:24.424Z,31.47
2018-12-31T17:53:52.969Z,34.07
2018-12-31T17:56:21.550Z,31.87
2018-12-31T17:58:50.046Z,34.47
2018-12-31T18:01:18.782Z,29.93
2018-12-31T18:03:47.292Z,30.27
2018-12-31T18:06:16.014Z,31.17
2018-12-31T18:08:44.527Z,39.07
2018-12-31T18:11:12.996Z,34.47
2018-12-31T18:13:41.443Z,31.30
2018-12-31T18:16:09.976Z,34.97
2018-12-31T18:18:38.424Z,33.53
2018-12-31T18:21:06.958Z,33.60
2018-12-31T18:23:35.399Z,30.47
2018-12-31T18:26:03.971Z,32.23
2018-12-31T18:28:51.781Z,35.03
2018-12-31T18:31:20.252Z,36.97
2018-12-31T18:33:48.699Z,37.63
2018-12-31T18:36:17.626Z,34.50
2018-12-31T18:38:46.101Z,34.33
2018-12-31T18:41:14.617Z,36.40
2018-12-31T18:43:43.079Z,35.20
2018-12-31T18:46:11.593Z,36.97
2018-12-31T18:48:40.056Z,35.97
2018-12-31T18:51:08.579Z,34.77
2018-12-31T18:53:37.039Z,34.57
2018-12-31T18:56:05.484Z,34.17
2018-12-31T18:58:33.976Z,35.47
2018-12-31T19:01:02.416Z,33.80
2018-12-31T19:03:31.159Z,34.20
2018-12-31T19:05:59.599Z,35.37
2018-12-31T19:08:28.059Z,36.00
2018-12-31T19:10:56.507Z,36.73
2018-12-31T19:13:24.964Z,35.27
2018-12-31T19:15:53.793Z,31.83
2018-12-31T19:18:22.304Z,33.57
2018-12-31T19:20:50.836Z,34.03
2018-12-31T19:23:19.318Z,33.80
2018-12-31T19:25:47.811Z,35.70
2018-12-31T19:28:16.264Z,40.80
2018-12-31T19:30:44.801Z,36.80
2018-12-31T19:33:13.251Z,38.43
2018-12-31T19:35:41.786Z,40.07
2018-12-31T19:38:10.235Z,37.90
2018-12-31T19:40:38.766Z,42.70
2018-12-31T19:43:07.590Z,37.80
2018-12-31T19:45:36.085Z,39.80
2018-12-31T19:48:04.604Z,39.20
2018-12-31T19:50:33.120Z,39.60
2018-12-31T19:53:01.667Z,41.23
2018-12-31T19:55:30.397Z,38.37
2018-12-31T19:57:59.020Z,38.00
2018-12-31T20:00:27.545Z,38.80
2018-12-31T20:02:58.872Z,39.03
2018-12-31T20:05:27.324Z,47.07
2018-12-31T20:08:01.579Z,42.00
2018-12-31T20:10:30.041Z,38.93
2018-12-31T20:12:58.504Z,37.23
2018-12-31T20:15:26.946Z,38.47
2018-12-31T20:18:01.128Z,38.03
2018-12-31T20:20:29.972Z,36.67
2018-12-31T20:22:58.444Z,36.77
2018-12-31T20:25:26.990Z,34.23
2018-12-31T20:27:55.509Z,38.00
2018-12-31T20:30:24.035Z,37.83
2018-12-31T20:32:52.551Z,36.60
2018-12-31T20:35:21.008Z,37.63
2018-12-31T20:37:49.460Z,40.73
2018-12-31T20:40:17.987Z,36.00
2018-12-31T20:42:46.446Z,36.57
2018-12-31T20:45:14.905Z,36.60
2018-12-31T20:47:43.422Z,41.95
2018-12-31T20:50:11.945Z,37.83
2018-12-31T20:52:40.379Z,35.10
2018-12-31T20:55:08.819Z,37.17
2018-12-31T20:57:37.328Z,36.17
2018-12-31T21:00:07.783Z,35.10
2018-12-31T21:02:36.703Z,33.43
2018-12-31T21:05:06.006Z,34.03
2018-12-31T21:07:34.917Z,34.57
2018-12-31T21:10:04.505Z,33.57
2018-12-31T21:12:32.969Z,32.53
2018-12-31T21:15:04.427Z,30.27
2018-12-31T21:17:32.963Z,30.17
2018-12-31T21:20:01.487Z,30.90
2018-12-31T21:22:30.036Z,29.20
2018-12-31T21:24:58.522Z,30.10
2018-12-31T21:27:27.366Z,29.67
2018-12-31T21:29:55.820Z,28.93
2018-12-31T21:32:24.349Z,27.87
2018-12-31T21:34:52.799Z,27.80
2018-12-31T21:37:21.247Z,30.07
2018-12-31T21:39:49.688Z,34.30
2018-12-31T21:42:18.151Z,28.60
2018-12-31T21:44:46.675Z,29.80
2018-12-31T21:47:15.143Z,31.47
2018-12-31T21:49:43.587Z,34.10
2018-12-31T21:52:12.048Z,29.83
2018-12-31T21:54:40.981Z,30.20
2018-12-31T21:57:09.443Z,29.57
2018-12-31T21:59:37.880Z,30.07
2018-12-31T22:02:06.404Z,29.93
2018-12-31T22:04:34.937Z,31.80
2018-12-31T22:07:03.575Z,32.70
2018-12-31T22:09:33.154Z,30.73
2018-12-31T22:12:01.672Z,33.57
2018-12-31T22:14:30.205Z,29.53
2018-12-31T22:16:58.720Z,30.97
2018-12-31T22:19:27.178Z,32.07
2018-12-31T22:21:57.093Z,33.70
2018-12-31T22:24:25.620Z,34.37
2018-12-31T22:26:54.061Z,32.60
2018-12-31T22:29:22.573Z,34.50
2018-12-31T22:31:51.038Z,33.00
2018-12-31T22:34:19.944Z,35.70
2018-12-31T22:36:48.391Z,34.33
2018-12-31T22:39:16.852Z,33.50
2018-12-31T22:41:45.291Z,35.10
2018-12-31T22:44:33.096Z,34.23
2018-12-31T22:47:01.563Z,37.27
2018-12-31T22:49:30.000Z,40.07
2018-12-31T22:51:58.469Z,41.33
2018-12-31T22:54:26.997Z,38.37
2018-12-31T22:56:55.515Z,42.17
2018-12-31T22:59:23.963Z,40.87
2018-12-31T23:01:52.417Z,51.13
2018-12-31T23:04:20.864Z,161.87
2018-12-31T23:06:50.171Z,239.40
2018-12-31T23:09:18.759Z,187.20
2018-12-31T23:11:47.235Z,146.90
2018-12-31T23:14:15.684Z,195.37
2018-12-31T23:16:44.457Z,255.87
2018-12-31T23:19:12.980Z,364.07
2018-12-31T23:21:41.510Z,386.53
2018-12-31T23:24:09.955Z,224.50
2018-12-31T23:26:38.472Z,181.73
2018-12-31T23:29:08.020Z,232.97
2018-12-31T23:31:36.459Z,206.67
2018-12-31T23:34:05.916Z,246.87
2018-12-31T23:36:34.904Z,202.03
2018-12-31T23:39:05.294Z,200.03
2018-12-31T23:41:34.076Z,157.17
2018-12-31T23:44:02.531Z,141.87
2018-12-31T23:46:30.979Z,133.40
2018-12-31T23:48:59.811Z,129.77
2018-12-31T23:51:28.258Z,124.07
2018-12-31T23:53:56.731Z,119.73
2018-12-31T23:56:25.184Z,113.97
2018-12-31T23:58:54.254Z,113.40
